Time;durP1;ratioP1;P1;durP2;ratioP2;P2;SDS_P1;SDS_P2;PMS_P1;PMS_P2;Temp;Humidity;BMP_temperature;BMP_pressure;BME280_temperature;BME280_humidity;BME280_pressure;Samples;Min_cycle;Max_cycle;Signal;HPM_P1;HPM_P2
2020/12/08 00:01:50;;;;;;;18.30;14.18;;;1.90;1.00;;;;;;4992062;28;20493;-66
2020/12/08 00:04:17;;;;;;;18.52;13.68;;;2.00;1.00;;;;;;4992415;28;20418;-66
2020/12/08 00:06:43;;;;;;;20.17;15.25;;;1.90;1.00;;;;;;4992385;28;20953;-67
2020/12/08 00:09:09;;;;;;;18.02;13.55;;;2.00;1.00;;;;;;4992498;28;20449;-66
2020/12/08 00:11:36;;;;;;;18.40;13.77;;;2.00;1.00;;;;;;4991945;28;20468;-67
2020/12/08 00:14:02;;;;;;;20.30;14.90;;;1.80;1.00;;;;;;4992231;28;20465;-66
2020/12/08 00:16:28;;;;;;;23.98;15.95;;;1.70;1.00;;;;;;4992328;28;20410;-66
2020/12/08 00:18:55;;;;;;;22.73;15.77;;;1.70;1.00;;;;;;4992626;28;20414;-66
2020/12/08 00:21:21;;;;;;;21.98;15.05;;;1.70;14.40;;;;;;4991812;28;21013;-66
2020/12/08 00:23:47;;;;;;;20.45;15.60;;;1.60;59.50;;;;;;4992202;28;20469;-66
2020/12/08 00:26:13;;;;;;;20.42;15.68;;;1.70;99.90;;;;;;4992017;28;20484;-66
2020/12/08 00:28:41;;;;;;;22.45;15.55;;;1.70;99.90;;;;;;4991466;28;20414;-67
2020/12/08 00:31:08;;;;;;;21.58;15.27;;;1.60;99.90;;;;;;4992025;28;20406;-66
2020/12/08 00:33:34;;;;;;;19.33;14.32;;;1.60;99.90;;;;;;4991858;28;20422;-66
2020/12/08 00:36:02;;;;;;;19.50;14.70;;;1.70;99.90;;;;;;4991992;28;20418;-67
2020/12/08 00:38:28;;;;;;;20.55;14.48;;;1.70;99.90;;;;;;4991331;28;20498;-65
2020/12/08 00:40:54;;;;;;;18.27;14.00;;;1.80;99.90;;;;;;4991873;28;20429;-66
2020/12/08 00:43:20;;;;;;;20.07;14.30;;;1.70;99.90;;;;;;4991760;28;20415;-66
2020/12/08 00:45:47;;;;;;;19.30;15.00;;;1.60;34.70;;;;;;4991777;28;20410;-66
2020/12/08 00:48:13;;;;;;;22.67;15.68;;;1.50;99.90;;;;;;4991790;28;20451;-68
2020/12/08 00:50:40;;;;;;;22.77;15.82;;;1.50;99.90;;;;;;4991714;28;20772;-67
2020/12/08 00:53:06;;;;;;;20.65;15.85;;;1.60;99.90;;;;;;4991568;28;20461;-67
2020/12/08 00:55:32;;;;;;;21.50;16.63;;;1.50;99.90;;;;;;4991598;28;20430;-67
2020/12/08 00:57:58;;;;;;;23.00;15.77;;;1.50;99.90;;;;;;4991528;28;20760;-67
2020/12/08 01:00:24;;;;;;;22.80;16.08;;;1.40;99.90;;;;;;4991721;28;20434;-67
2020/12/08 01:02:51;;;;;;;23.20;16.03;;;1.40;99.90;;;;;;4991336;28;20476;-67
2020/12/08 01:05:17;;;;;;;20.63;16.23;;;1.40;99.90;;;;;;4991501;28;20418;-66
2020/12/08 01:07:43;;;;;;;20.15;15.43;;;1.40;99.90;;;;;;4991510;28;20422;-67
2020/12/08 01:10:09;;;;;;;24.67;17.07;;;1.30;99.90;;;;;;4991530;28;20410;-66
2020/12/08 01:12:37;;;;;;;23.98;16.58;;;1.30;99.90;;;;;;4991128;28;20414;-67
2020/12/08 01:15:04;;;;;;;22.00;16.75;;;1.30;99.90;;;;;;4991553;28;20472;-66
2020/12/08 01:17:32;;;;;;;23.77;17.53;;;1.20;99.90;;;;;;4991640;28;20422;-66
2020/12/08 01:19:59;;;;;;;23.27;16.90;;;1.20;99.90;;;;;;4991161;28;20488;-67
2020/12/08 01:22:25;;;;;;;20.20;15.73;;;1.20;99.90;;;;;;4991323;28;20426;-66
2020/12/08 01:24:51;;;;;;;19.48;14.63;;;1.30;1.00;;;;;;4991283;28;20444;-66
2020/12/08 01:27:17;;;;;;;19.73;15.60;;;1.50;99.90;;;;;;4991759;28;20466;-66
2020/12/08 01:29:44;;;;;;;20.73;15.90;;;1.40;99.90;;;;;;4990970;28;20811;-66
2020/12/08 01:32:10;;;;;;;19.20;14.82;;;1.50;99.90;;;;;;4991315;28;20414;-66
2020/12/08 01:34:37;;;;;;;21.15;16.30;;;1.50;99.90;;;;;;4991375;28;20418;-66
2020/12/08 01:37:04;;;;;;;19.13;14.57;;;1.50;99.90;;;;;;4991267;28;20423;-66
2020/12/08 01:39:30;;;;;;;18.17;14.98;;;1.50;99.90;;;;;;4991088;28;20414;-66
2020/12/08 01:41:57;;;;;;;18.67;14.80;;;1.40;99.90;;;;;;4991023;28;20430;-66
2020/12/08 01:44:23;;;;;;;21.23;14.57;;;1.40;99.90;;;;;;4991367;28;20418;-66
2020/12/08 01:46:50;;;;;;;19.52;13.73;;;1.50;87.20;;;;;;4991280;28;20414;-67
2020/12/08 01:49:16;;;;;;;20.80;15.15;;;1.50;43.40;;;;;;4992064;28;20481;-67
2020/12/08 01:51:42;;;;;;;21.60;14.45;;;1.50;35.10;;;;;;4994848;28;20414;-67
2020/12/08 01:54:10;;;;;;;21.38;16.05;;;1.50;25.90;;;;;;4994530;28;20418;-67
2020/12/08 01:56:37;;;;;;;22.17;15.88;;;1.40;9.40;;;;;;4994835;28;20410;-67
2020/12/08 01:59:04;;;;;;;22.58;15.93;;;1.20;15.00;;;;;;4994627;28;20817;-66
2020/12/08 02:01:30;;;;;;;21.35;15.93;;;1.10;49.10;;;;;;4994625;28;20485;-66
2020/12/08 02:03:56;;;;;;;22.90;16.88;;;1.00;99.90;;;;;;4994493;28;20823;-66
2020/12/08 02:06:25;;;;;;;22.20;16.93;;;1.00;99.90;;;;;;4994488;28;20543;-66
2020/12/08 02:08:51;;;;;;;23.15;16.60;;;1.00;99.90;;;;;;4994793;28;20476;-67
2020/12/08 02:11:18;;;;;;;19.95;15.48;;;1.00;99.90;;;;;;4994409;28;20449;-67
2020/12/08 02:13:44;;;;;;;19.00;15.18;;;1.00;99.90;;;;;;4994349;28;20963;-67
2020/12/08 02:16:10;;;;;;;21.65;16.50;;;1.10;99.90;;;;;;4994367;28;20473;-66
2020/12/08 02:18:37;;;;;;;21.23;16.60;;;0.90;99.90;;;;;;4994098;28;20438;-67
2020/12/08 02:21:04;;;;;;;20.33;16.20;;;1.00;99.90;;;;;;4993888;28;20426;-66
2020/12/08 02:23:31;;;;;;;19.30;14.55;;;1.10;99.90;;;;;;4994308;28;20461;-66
2020/12/08 02:25:58;;;;;;;22.00;15.07;;;1.10;99.90;;;;;;4994654;28;20831;-66
2020/12/08 02:28:24;;;;;;;18.88;14.45;;;1.30;99.90;;;;;;4994513;28;20476;-66
2020/12/08 02:30:51;;;;;;;18.63;13.75;;;1.30;88.90;;;;;;4994328;28;20402;-67
2020/12/08 02:33:17;;;;;;;18.00;13.65;;;1.30;1.00;;;;;;4993775;28;20883;-66
2020/12/08 02:35:43;;;;;;;19.35;14.60;;;1.20;1.00;;;;;;4993798;28;20477;-66
2020/12/08 02:38:10;;;;;;;17.23;14.30;;;1.20;1.00;;;;;;4994010;28;20481;-66
2020/12/08 02:40:36;;;;;;;21.50;16.08;;;1.10;1.00;;;;;;4993966;28;20768;-67
2020/12/08 02:43:02;;;;;;;22.30;16.65;;;1.00;1.00;;;;;;4993762;28;20892;-67
2020/12/08 02:45:28;;;;;;;21.10;15.73;;;1.00;1.00;;;;;;4993895;28;20887;-67
2020/12/08 02:47:54;;;;;;;22.02;16.35;;;1.00;1.00;;;;;;4994081;28;20414;-67
2020/12/08 02:50:20;;;;;;;22.52;17.02;;;0.90;33.30;;;;;;4993619;28;20549;-66
2020/12/08 02:52:46;;;;;;;23.90;17.77;;;0.80;40.10;;;;;;4993766;28;21081;-66
2020/12/08 02:55:15;;;;;;;24.48;17.85;;;0.80;99.90;;;;;;4993568;28;20899;-67
2020/12/08 02:57:41;;;;;;;26.05;17.70;;;0.70;99.90;;;;;;4993558;28;20422;-65
2020/12/08 03:00:08;;;;;;;24.77;18.30;;;0.70;99.90;;;;;;4993122;28;20468;-66
2020/12/08 03:02:34;;;;;;;24.98;18.25;;;0.70;99.90;;;;;;4993201;28;20413;-67
2020/12/08 03:05:00;;;;;;;25.70;18.92;;;0.70;99.90;;;;;;4993338;28;20418;-67
2020/12/08 03:07:26;;;;;;;21.35;16.10;;;0.80;99.90;;;;;;4993419;28;20410;-66
2020/12/08 03:09:52;;;;;;;27.42;18.20;;;0.80;99.90;;;;;;4993563;28;20480;-67
2020/12/08 03:12:19;;;;;;;24.17;17.20;;;0.80;99.90;;;;;;4993195;28;20946;-67
2020/12/08 03:14:45;;;;;;;24.70;17.77;;;0.80;99.90;;;;;;4993183;28;20414;-66
2020/12/08 03:17:11;;;;;;;21.95;17.10;;;0.90;99.90;;;;;;4993438;28;20456;-66
2020/12/08 03:19:37;;;;;;;24.63;17.10;;;1.00;99.90;;;;;;4992982;28;20822;-67
2020/12/08 03:22:05;;;;;;;23.65;17.95;;;1.00;99.90;;;;;;4993011;28;20484;-67
2020/12/08 03:24:32;;;;;;;23.70;18.27;;;0.90;99.90;;;;;;4993020;28;20422;-66
2020/12/08 03:26:58;;;;;;;23.13;16.73;;;0.90;99.90;;;;;;4993086;28;20411;-67
2020/12/08 03:29:25;;;;;;;25.00;17.58;;;0.80;62.10;;;;;;4992793;28;20418;-67
2020/12/08 03:31:51;;;;;;;25.75;17.55;;;0.70;99.90;;;;;;4992552;28;20495;-67
2020/12/08 03:34:17;;;;;;;22.70;17.00;;;0.80;99.90;;;;;;4992898;28;20415;-67
2020/12/08 03:36:43;;;;;;;25.63;18.83;;;0.90;99.90;;;;;;4992785;28;20418;-67
2020/12/08 03:39:09;;;;;;;25.25;18.00;;;0.90;99.90;;;;;;4992745;28;20819;-66
2020/12/08 03:41:35;;;;;;;25.53;17.00;;;0.90;99.90;;;;;;4992740;28;20426;-68
2020/12/08 03:44:01;;;;;;;24.30;17.65;;;0.90;99.90;;;;;;4994096;28;20406;-68
2020/12/08 03:46:28;;;;;;;30.20;19.75;;;0.90;99.90;;;;;;4993858;28;20473;-67
2020/12/08 03:48:54;;;;;;;26.07;20.00;;;0.90;83.70;;;;;;4992405;28;20426;-67
2020/12/08 03:51:22;;;;;;;27.17;19.30;;;0.80;99.90;;;;;;4995884;28;20472;-68
2020/12/08 03:53:49;;;;;;;28.92;19.17;;;0.90;99.90;;;;;;4997185;28;20977;-68
2020/12/08 03:56:17;;;;;;;30.85;19.80;;;0.80;99.90;;;;;;4995118;28;20883;-67
2020/12/08 03:58:43;;;;;;;31.25;21.20;;;0.80;99.90;;;;;;4992393;28;20418;-68
2020/12/08 04:01:14;;;;;;;35.08;21.35;;;0.80;99.90;;;;;;4992099;28;20429;-68
2020/12/08 04:03:42;;;;;;;32.78;22.52;;;0.80;99.90;;;;;;4992497;28;20417;-66
2020/12/08 04:06:08;;;;;;;41.05;24.50;;;0.70;99.90;;;;;;4992276;28;20414;-67
2020/12/08 04:08:34;;;;;;;39.92;25.42;;;0.80;99.90;;;;;;4992339;28;20979;-66
2020/12/08 04:11:00;;;;;;;42.28;26.30;;;0.90;1.00;;;;;;4991942;28;20411;-66
2020/12/08 04:13:27;;;;;;;43.97;27.40;;;1.00;1.00;;;;;;4991598;28;20414;-67
2020/12/08 04:15:53;;;;;;;48.30;26.85;;;1.20;1.00;;;;;;4991756;28;20460;-66
2020/12/08 04:18:19;;;;;;;40.80;25.48;;;1.30;1.00;;;;;;4992139;28;20422;-66
2020/12/08 04:20:46;;;;;;;43.88;26.67;;;1.30;1.00;;;;;;4992063;28;20431;-66
2020/12/08 04:23:12;;;;;;;43.53;25.92;;;1.30;1.00;;;;;;4991695;28;20949;-67
2020/12/08 04:25:39;;;;;;;44.63;26.40;;;1.30;1.00;;;;;;4991904;28;20468;-67
2020/12/08 04:28:05;;;;;;;41.70;26.98;;;1.40;1.00;;;;;;4991560;28;20418;-67
2020/12/08 04:30:32;;;;;;;44.97;26.93;;;1.50;34.50;;;;;;4991871;28;20942;-68
2020/12/08 04:32:58;;;;;;;44.65;28.25;;;1.40;1.00;;;;;;4991825;28;20419;-67
2020/12/08 04:35:24;;;;;;;40.08;25.27;;;1.50;29.00;;;;;;4992126;28;20911;-67
2020/12/08 04:37:51;;;;;;;42.72;27.25;;;1.50;43.00;;;;;;4992066;28;20410;-68
2020/12/08 04:40:17;;;;;;;38.67;25.27;;;1.60;43.50;;;;;;4991827;28;20460;-66
2020/12/08 04:42:44;;;;;;;37.60;24.20;;;1.60;29.70;;;;;;4992751;28;20437;-66
2020/12/08 04:45:10;;;;;;;40.30;24.38;;;1.70;3.70;;;;;;4992118;28;20457;-67
2020/12/08 04:47:38;;;;;;;41.57;25.67;;;1.70;1.00;;;;;;4991674;28;20468;-67
2020/12/08 04:50:05;;;;;;;38.75;25.55;;;1.70;1.00;;;;;;4991402;28;20414;-67
2020/12/08 04:52:31;;;;;;;36.08;24.88;;;1.70;1.00;;;;;;4991553;28;20414;-67
2020/12/08 04:54:58;;;;;;;33.40;21.08;;;1.80;1.00;;;;;;4991652;28;20414;-66
2020/12/08 04:57:24;;;;;;;32.13;22.25;;;1.90;1.00;;;;;;4991487;28;20418;-67
2020/12/08 05:00:01;;;;;;;31.60;21.45;;;1.80;1.00;;;;;;4991443;28;20423;-66
2020/12/08 05:02:27;;;;;;;32.77;22.00;;;1.80;1.00;;;;;;4991151;28;20930;-67
2020/12/08 05:04:55;;;;;;;30.25;21.08;;;1.90;1.00;;;;;;4989675;28;20414;-66
2020/12/08 05:07:26;;;;;;;32.40;21.70;;;1.90;99.90;;;;;;4991518;28;20422;-66
2020/12/08 05:09:52;;;;;;;32.38;22.27;;;1.80;99.90;;;;;;4993358;28;20436;-67
2020/12/08 05:12:24;;;;;;;32.83;22.23;;;1.90;1.00;;;;;;4994004;28;20425;-67
2020/12/08 05:14:50;;;;;;;29.20;21.20;;;1.90;1.00;;;;;;4993268;28;20413;-67
2020/12/08 05:17:24;;;;;;;32.05;22.45;;;1.90;1.00;;;;;;4992026;28;20419;-67
2020/12/08 05:20:05;;;;;;;32.67;22.15;;;2.00;1.00;;;;;;4990960;28;20422;-66
2020/12/08 05:22:31;;;;;;;36.25;23.08;;;1.90;99.90;;;;;;4990937;28;20461;-67
2020/12/08 05:25:08;;;;;;;35.95;23.00;;;1.90;1.00;;;;;;4996802;28;20417;-67
2020/12/08 05:27:35;;;;;;;31.00;21.25;;;1.90;1.00;;;;;;4997092;28;20946;-66
2020/12/08 05:30:04;;;;;;;33.38;22.23;;;2.00;1.00;;;;;;4999048;28;20833;-67
2020/12/08 05:32:36;;;;;;;33.78;21.60;;;2.00;1.00;;;;;;4997836;28;20834;-66
2020/12/08 05:35:05;;;;;;;33.25;22.00;;;2.00;1.00;;;;;;4997302;28;20410;-67
2020/12/08 05:37:36;;;;;;;30.95;20.67;;;2.10;1.00;;;;;;4997534;28;20430;-67
2020/12/08 05:40:06;;;;;;;31.73;20.85;;;2.20;99.90;;;;;;4997485;28;20433;-66
2020/12/08 05:42:34;;;;;;;30.70;21.40;;;2.10;99.90;;;;;;4994633;28;20434;-67
2020/12/08 05:45:01;;;;;;;27.70;19.92;;;2.20;99.90;;;;;;4994913;28;20421;-66
2020/12/08 05:47:27;;;;;;;27.75;19.08;;;2.10;99.90;;;;;;4994399;28;20418;-66
2020/12/08 05:50:00;;;;;;;30.30;20.67;;;2.20;99.90;;;;;;4994838;28;20422;-66
2020/12/08 05:52:29;;;;;;;27.60;19.48;;;2.20;99.90;;;;;;4994724;28;20421;-66
2020/12/08 05:55:06;;;;;;;25.45;18.92;;;2.30;99.90;;;;;;4994688;28;20509;-67
2020/12/08 05:57:32;;;;;;;27.02;19.38;;;2.30;99.90;;;;;;4994887;28;20410;-67
2020/12/08 05:59:59;;;;;;;24.77;18.15;;;2.40;99.90;;;;;;4994263;28;20419;-67
2020/12/08 06:02:28;;;;;;;25.15;18.25;;;2.40;99.90;;;;;;4994792;28;20430;-67
2020/12/08 06:04:55;;;;;;;23.83;17.25;;;2.40;99.90;;;;;;4994598;28;20418;-67
2020/12/08 06:07:27;;;;;;;27.98;18.52;;;2.50;99.90;;;;;;4994628;28;20498;-67
2020/12/08 06:10:07;;;;;;;22.77;16.77;;;2.50;99.90;;;;;;4994408;28;20485;-66
2020/12/08 06:12:34;;;;;;;24.47;18.07;;;2.50;99.90;;;;;;4994062;28;20555;-67
2020/12/08 06:15:00;;;;;;;24.08;17.80;;;2.50;99.90;;;;;;4994513;28;20495;-67
2020/12/08 06:17:27;;;;;;;25.45;18.88;;;2.50;90.80;;;;;;4994934;28;20414;-65
2020/12/08 06:19:54;;;;;;;25.00;17.10;;;2.60;40.90;;;;;;4999123;28;20483;-65
2020/12/08 06:22:20;;;;;;;26.75;18.50;;;2.60;14.50;;;;;;5013491;28;20839;-64
2020/12/08 06:24:53;;;;;;;25.60;18.30;;;2.50;12.10;;;;;;5013324;28;20471;-64
2020/12/08 06:27:20;;;;;;;22.60;16.88;;;2.60;33.60;;;;;;5013472;28;20466;-65
2020/12/08 06:29:54;;;;;;;25.30;18.33;;;2.60;6.10;;;;;;5012944;28;20417;-65
2020/12/08 06:32:28;;;;;;;23.70;17.08;;;2.60;1.00;;;;;;5013138;28;20479;-66
2020/12/08 06:35:09;;;;;;;21.08;16.75;;;2.70;1.00;;;;;;5012032;28;20424;-65
2020/12/08 06:37:36;;;;;;;22.30;16.40;;;2.60;1.00;;;;;;5013507;28;20424;-67
2020/12/08 06:40:07;;;;;;;24.45;17.88;;;2.60;1.00;;;;;;5013530;28;20463;-68
2020/12/08 06:42:33;;;;;;;26.30;17.60;;;2.60;1.00;;;;;;5013021;28;20424;-67
2020/12/08 06:45:09;;;;;;;25.70;16.80;;;2.60;1.00;;;;;;5013410;28;20413;-67
2020/12/08 06:47:36;;;;;;;25.52;17.67;;;2.70;66.20;;;;;;5013094;28;20776;-66
2020/12/08 06:50:04;;;;;;;22.67;16.65;;;3.30;99.90;;;;;;5012965;28;20486;-66
2020/12/08 06:52:30;;;;;;;20.05;15.57;;;3.40;99.90;;;;;;5013067;28;20467;-68
2020/12/08 06:54:58;;;;;;;18.42;15.07;;;3.20;1.00;;;;;;5013211;28;20947;-66
2020/12/08 06:57:24;;;;;;;18.92;15.02;;;3.00;1.00;;;;;;5013260;28;20443;-66
2020/12/08 06:59:59;;;;;;;22.15;15.93;;;2.90;1.00;;;;;;5012851;28;20412;-67
2020/12/08 07:02:25;;;;;;;20.07;15.17;;;2.90;1.00;;;;;;5012710;28;20436;-66
2020/12/08 07:04:52;;;;;;;20.90;16.15;;;2.90;1.00;;;;;;5013070;28;20408;-66
2020/12/08 07:07:19;;;;;;;21.23;14.75;;;2.90;1.00;;;;;;5013320;28;20413;-64
2020/12/08 07:09:45;;;;;;;16.92;14.20;;;2.90;1.00;;;;;;5013281;28;20448;-64
2020/12/08 07:12:11;;;;;;;16.23;12.43;;;2.90;1.00;;;;;;5013109;28;20475;-64
2020/12/08 07:14:37;;;;;;;18.75;13.48;;;2.90;1.00;;;;;;5013207;28;20412;-65
2020/12/08 07:17:03;;;;;;;15.70;12.50;;;3.00;99.90;;;;;;5012632;28;20418;-64
2020/12/08 07:19:30;;;;;;;16.60;12.40;;;3.10;99.90;;;;;;5012860;28;20447;-64
2020/12/08 07:21:58;;;;;;;16.10;12.80;;;3.10;99.90;;;;;;5012559;28;20421;-61
2020/12/08 07:24:25;;;;;;;14.10;11.70;;;3.20;99.90;;;;;;4993276;28;20424;-63
2020/12/08 07:26:56;;;;;;;15.40;11.85;;;3.20;99.90;;;;;;4992843;28;20858;-65
2020/12/08 07:29:23;;;;;;;14.07;10.40;;;3.10;99.90;;;;;;4992511;28;20418;-64
2020/12/08 07:31:49;;;;;;;12.75;9.60;;;3.20;99.90;;;;;;4992437;28;20484;-64
2020/12/08 07:34:15;;;;;;;11.10;8.77;;;3.30;99.90;;;;;;4993149;28;20436;-63
2020/12/08 07:36:42;;;;;;;9.80;8.30;;;3.40;99.90;;;;;;4992857;28;20418;-64
2020/12/08 07:39:17;;;;;;;9.60;8.02;;;3.40;83.00;;;;;;4992571;28;20410;-64
2020/12/08 07:41:43;;;;;;;11.32;7.63;;;3.50;40.90;;;;;;4991916;28;20795;-64
2020/12/08 07:44:12;;;;;;;9.98;8.98;;;3.50;30.50;;;;;;4992477;28;20433;-63
2020/12/08 07:46:48;;;;;;;9.90;8.43;;;3.60;9.70;;;;;;4992679;28;20418;-62
2020/12/08 07:49:14;;;;;;;11.25;9.25;;;3.70;1.00;;;;;;4992331;28;20414;-64
2020/12/08 07:51:40;;;;;;;10.95;9.30;;;3.80;1.00;;;;;;4993513;28;20410;-65
2020/12/08 07:54:08;;;;;;;12.48;9.90;;;3.90;1.00;;;;;;4995498;28;20488;-65
2020/12/08 07:56:37;;;;;;;12.45;10.80;;;3.90;1.00;;;;;;4995851;28;20464;-64
2020/12/08 07:59:05;;;;;;;12.00;10.00;;;3.90;1.00;;;;;;4995440;28;20473;-63
2020/12/08 08:01:39;;;;;;;13.20;10.20;;;4.00;1.00;;;;;;4994448;28;20430;-63
2020/12/08 08:04:05;;;;;;;13.75;10.43;;;4.00;1.00;;;;;;4998837;28;20449;-64
2020/12/08 08:06:31;;;;;;;12.18;9.82;;;3.90;1.00;;;;;;4998716;28;20442;-64
2020/12/08 08:08:57;;;;;;;11.60;10.10;;;4.00;1.00;;;;;;4997896;28;20418;-63
2020/12/08 08:11:23;;;;;;;11.90;10.10;;;4.00;1.00;;;;;;4991431;28;20883;-64
2020/12/08 08:13:50;;;;;;;11.32;9.63;;;4.00;1.00;;;;;;4991784;28;20807;-64
2020/12/08 08:16:17;;;;;;;11.27;10.10;;;3.90;1.00;;;;;;4991966;28;20418;-63
2020/12/08 08:18:43;;;;;;;12.53;9.50;;;4.00;1.00;;;;;;4991476;28;20911;-65
2020/12/08 08:21:09;;;;;;;11.68;9.95;;;4.00;1.00;;;;;;4991492;28;20508;-66
2020/12/08 08:23:35;;;;;;;10.50;9.40;;;3.90;1.00;;;;;;4991550;28;20438;-65
2020/12/08 08:26:04;;;;;;;12.82;10.20;;;4.00;1.00;;;;;;4991408;28;20887;-65
2020/12/08 08:28:30;;;;;;;13.20;10.85;;;4.10;1.00;;;;;;4991465;28;20456;-65
2020/12/08 08:30:57;;;;;;;12.02;9.30;;;4.10;1.00;;;;;;4991181;28;20414;-65
2020/12/08 08:33:23;;;;;;;10.10;9.00;;;4.20;1.00;;;;;;4991267;28;20423;-65
2020/12/08 08:35:50;;;;;;;11.18;9.07;;;4.20;1.00;;;;;;4991534;28;20831;-65
2020/12/08 08:38:16;;;;;;;10.07;9.07;;;4.20;1.00;;;;;;4991157;28;20414;-65
2020/12/08 08:40:42;;;;;;;10.43;9.33;;;4.10;1.00;;;;;;4991411;28;20415;-66
2020/12/08 08:43:08;;;;;;;11.70;9.15;;;4.00;1.00;;;;;;4991605;28;20418;-66
2020/12/08 08:45:34;;;;;;;10.55;8.75;;;4.00;1.00;;;;;;4991449;28;20418;-66
2020/12/08 08:48:01;;;;;;;10.80;8.45;;;4.00;1.00;;;;;;4991303;28;20476;-66
2020/12/08 08:50:27;;;;;;;10.50;8.88;;;4.00;1.00;;;;;;4991421;28;20504;-66
2020/12/08 08:52:53;;;;;;;10.10;8.47;;;3.90;1.00;;;;;;4991397;28;20764;-65
2020/12/08 08:55:20;;;;;;;10.85;8.55;;;3.80;1.00;;;;;;4991634;28;20469;-66
2020/12/08 08:57:46;;;;;;;9.40;8.20;;;3.80;1.00;;;;;;4991661;28;20464;-65
2020/12/08 09:00:12;;;;;;;11.65;9.23;;;3.80;1.00;;;;;;4991359;28;20835;-65
2020/12/08 09:02:39;;;;;;;9.30;8.30;;;3.90;1.00;;;;;;4992437;28;20430;-68
2020/12/08 09:05:06;;;;;;;9.13;7.50;;;3.90;1.00;;;;;;4999651;28;20887;-66
2020/12/08 09:07:33;;;;;;;9.35;7.90;;;4.00;1.00;;;;;;4991935;28;20414;-68
2020/12/08 09:09:59;;;;;;;8.70;7.70;;;4.20;1.00;;;;;;4991061;28;20418;-68
2020/12/08 09:12:26;;;;;;;9.35;8.35;;;4.40;1.00;;;;;;4990822;28;20416;-67
2020/12/08 09:14:53;;;;;;;8.05;7.20;;;4.60;1.00;;;;;;4991220;28;20418;-66
2020/12/08 09:17:19;;;;;;;7.53;6.72;;;4.80;1.00;;;;;;4991165;28;20422;-69
2020/12/08 09:19:46;;;;;;;6.70;5.85;;;5.10;1.00;;;;;;4990720;28;20415;-68
2020/12/08 09:22:13;;;;;;;7.10;6.32;;;5.20;1.00;;;;;;4990489;28;20942;-66
2020/12/08 09:24:39;;;;;;;7.80;6.60;;;5.10;1.00;;;;;;4990917;28;20950;-66
2020/12/08 09:27:06;;;;;;;6.80;6.10;;;5.00;99.90;;;;;;4991028;28;20795;-65
2020/12/08 09:29:32;;;;;;;6.50;5.90;;;5.00;99.90;;;;;;4991100;28;20894;-66
2020/12/08 09:31:59;;;;;;;6.37;5.77;;;4.90;99.90;;;;;;4990458;28;20419;-67
2020/12/08 09:34:26;;;;;;;6.65;5.95;;;4.90;99.90;;;;;;4990852;28;20418;-66
2020/12/08 09:36:53;;;;;;;6.40;5.80;;;4.60;99.90;;;;;;4991147;28;20418;-67
2020/12/08 09:39:21;;;;;;;7.90;7.10;;;4.60;99.90;;;;;;4991371;28;20822;-67
2020/12/08 09:41:47;;;;;;;7.13;6.05;;;4.70;99.90;;;;;;4990617;28;20810;-65
2020/12/08 09:44:13;;;;;;;6.30;5.70;;;4.60;99.90;;;;;;4990855;28;20418;-66
2020/12/08 09:46:41;;;;;;;6.70;6.10;;;4.60;99.90;;;;;;4991329;28;20538;-66
2020/12/08 09:49:07;;;;;;;6.20;5.60;;;4.60;99.90;;;;;;4990719;28;20415;-66
2020/12/08 09:51:34;;;;;;;6.00;5.40;;;4.60;99.90;;;;;;4990715;28;20484;-66
2020/12/08 09:54:01;;;;;;;6.45;5.78;;;4.60;99.90;;;;;;4990715;28;20422;-67
2020/12/08 09:56:28;;;;;;;6.72;5.80;;;4.50;99.90;;;;;;4990688;28;20422;-67
2020/12/08 09:58:54;;;;;;;6.67;5.93;;;4.50;99.90;;;;;;4990623;28;20506;-65
2020/12/08 10:01:25;;;;;;;6.15;5.55;;;4.50;99.90;;;;;;4990076;28;20843;-65
2020/12/08 10:03:51;;;;;;;7.35;6.10;;;4.50;99.90;;;;;;4990508;28;20948;-65
2020/12/08 10:06:17;;;;;;;6.82;6.13;;;4.60;99.90;;;;;;4990714;28;21130;-65
2020/12/08 10:08:43;;;;;;;6.78;6.07;;;4.60;99.90;;;;;;4990579;28;20422;-68
2020/12/08 10:11:09;;;;;;;5.45;4.95;;;4.70;99.90;;;;;;4992819;28;20414;-67
2020/12/08 10:13:36;;;;;;;6.20;5.60;;;4.60;99.90;;;;;;4993866;28;20827;-65
2020/12/08 10:16:02;;;;;;;5.72;4.68;;;4.60;99.90;;;;;;4993939;28;20414;-67
2020/12/08 10:18:28;;;;;;;5.00;4.50;;;4.70;99.90;;;;;;4993873;28;20411;-67
2020/12/08 10:20:54;;;;;;;5.68;4.90;;;4.80;99.90;;;;;;4993422;28;20480;-68
2020/12/08 10:23:21;;;;;;;6.55;5.60;;;4.80;99.90;;;;;;4994128;28;20414;-67
2020/12/08 10:25:47;;;;;;;4.50;4.10;;;4.90;99.90;;;;;;4994125;28;20418;-66
2020/12/08 10:28:13;;;;;;;5.18;4.40;;;5.00;99.90;;;;;;4993735;28;20472;-66
2020/12/08 10:30:40;;;;;;;4.90;4.32;;;5.10;99.90;;;;;;4993823;28;20425;-66
2020/12/08 10:33:06;;;;;;;4.97;4.40;;;5.20;99.90;;;;;;4993621;28;20419;-66
2020/12/08 10:35:32;;;;;;;6.10;5.35;;;5.20;99.90;;;;;;4993750;28;20891;-65
2020/12/08 10:37:58;;;;;;;5.55;4.70;;;5.20;99.90;;;;;;4993552;28;20419;-66
2020/12/08 10:40:24;;;;;;;5.65;5.15;;;5.30;99.90;;;;;;4993376;28;20414;-65
2020/12/08 10:42:51;;;;;;;5.25;4.70;;;5.50;99.90;;;;;;4993536;28;20430;-68
2020/12/08 10:45:17;;;;;;;5.45;4.93;;;5.50;99.90;;;;;;4993259;28;20422;-67
2020/12/08 10:47:44;;;;;;;6.65;5.38;;;5.60;99.90;;;;;;4993545;28;20830;-66
2020/12/08 10:50:10;;;;;;;5.90;5.30;;;5.70;99.90;;;;;;4992972;28;20422;-67
2020/12/08 10:52:36;;;;;;;7.35;5.82;;;5.60;99.90;;;;;;4992856;28;20418;-67
2020/12/08 10:55:02;;;;;;;6.65;5.95;;;5.70;99.90;;;;;;4993189;28;20414;-69
2020/12/08 10:57:28;;;;;;;7.03;5.70;;;5.70;99.90;;;;;;4992862;28;20822;-68
2020/12/08 10:59:55;;;;;;;6.45;5.78;;;5.90;99.90;;;;;;4992558;28;20496;-68
2020/12/08 11:02:21;;;;;;;7.00;6.28;;;5.90;99.90;;;;;;4992480;28;20430;-68
2020/12/08 11:04:48;;;;;;;5.88;5.30;;;5.90;99.90;;;;;;4992746;28;20899;-67
2020/12/08 11:07:14;;;;;;;5.30;4.80;;;5.90;99.90;;;;;;4993065;28;20410;-67
2020/12/08 11:09:43;;;;;;;5.80;5.20;;;5.90;99.90;;;;;;4992676;28;20504;-66
2020/12/08 11:12:09;;;;;;;6.10;5.40;;;6.00;99.90;;;;;;4992516;28;20415;-68
2020/12/08 11:14:35;;;;;;;6.57;5.80;;;5.90;99.90;;;;;;4992926;28;20410;-68
2020/12/08 11:17:02;;;;;;;5.60;5.10;;;5.80;99.90;;;;;;4992942;28;20418;-68
2020/12/08 11:19:28;;;;;;;6.50;5.37;;;5.80;99.90;;;;;;4992720;28;20823;-68
2020/12/08 11:21:55;;;;;;;6.43;5.30;;;5.90;99.90;;;;;;4991734;28;20442;-68
2020/12/08 11:24:21;;;;;;;5.77;5.27;;;6.00;99.90;;;;;;4992956;28;20546;-67
2020/12/08 11:26:47;;;;;;;5.60;5.10;;;6.00;99.90;;;;;;4992742;28;20453;-67
2020/12/08 11:29:13;;;;;;;5.78;5.28;;;5.90;99.90;;;;;;4992395;28;21139;-67
2020/12/08 11:31:39;;;;;;;6.40;5.30;;;5.90;99.90;;;;;;4992416;28;20415;-68
2020/12/08 11:34:05;;;;;;;5.40;4.90;;;6.00;99.90;;;;;;4992623;28;20418;-67
2020/12/08 11:36:31;;;;;;;6.32;5.72;;;6.10;99.90;;;;;;4992560;28;20407;-68
2020/12/08 11:38:58;;;;;;;6.45;5.85;;;6.10;99.90;;;;;;4992108;28;20826;-68
2020/12/08 11:41:24;;;;;;;6.78;6.07;;;6.10;99.90;;;;;;4991580;28;20433;-67
2020/12/08 11:43:51;;;;;;;6.05;5.45;;;6.10;99.90;;;;;;4991918;28;20460;-67
2020/12/08 11:46:17;;;;;;;6.73;6.03;;;6.10;99.90;;;;;;4992077;28;20414;-66
2020/12/08 11:48:43;;;;;;;6.50;5.80;;;6.10;99.90;;;;;;4992198;28;20477;-65
2020/12/08 11:51:09;;;;;;;8.63;6.90;;;6.10;99.90;;;;;;4991988;28;20421;-66
2020/12/08 11:53:35;;;;;;;7.50;6.70;;;6.10;99.90;;;;;;4993136;28;20414;-66
2020/12/08 11:56:02;;;;;;;7.40;6.35;;;6.10;99.90;;;;;;4993256;28;20418;-68
2020/12/08 11:58:28;;;;;;;8.20;6.60;;;6.00;99.90;;;;;;4992533;28;20421;-66
2020/12/08 12:00:54;;;;;;;7.47;6.63;;;5.80;99.90;;;;;;4992915;28;20484;-69
2020/12/08 12:03:21;;;;;;;8.82;7.93;;;5.80;99.90;;;;;;4991922;28;20434;-68
2020/12/08 12:05:47;;;;;;;8.60;7.70;;;5.80;99.90;;;;;;4992066;28;20415;-68
2020/12/08 12:08:13;;;;;;;9.57;7.63;;;5.80;99.90;;;;;;4991981;28;20414;-66
2020/12/08 12:10:40;;;;;;;9.37;8.23;;;5.70;99.90;;;;;;4992153;28;20426;-70
2020/12/08 12:13:07;;;;;;;7.88;7.03;;;5.80;99.90;;;;;;4994327;28;20420;-66
2020/12/08 12:15:34;;;;;;;8.55;7.60;;;5.90;99.90;;;;;;4993673;28;20461;-66
2020/12/08 12:18:00;;;;;;;8.43;7.47;;;6.00;99.90;;;;;;4992380;28;20414;-66
2020/12/08 12:20:26;;;;;;;10.40;7.82;;;6.10;99.90;;;;;;4992780;28;20496;-67
2020/12/08 12:22:52;;;;;;;8.55;7.60;;;6.10;99.90;;;;;;4991918;28;20847;-66
2020/12/08 12:25:18;;;;;;;9.30;8.17;;;6.10;99.90;;;;;;4993462;28;20410;-66
2020/12/08 12:27:44;;;;;;;9.43;7.93;;;6.10;99.90;;;;;;4993076;28;20422;-66
2020/12/08 12:30:11;;;;;;;10.18;8.40;;;6.00;99.90;;;;;;4993316;28;20414;-65
2020/12/08 12:32:38;;;;;;;10.35;8.50;;;6.00;99.90;;;;;;4990800;28;20473;-67
2020/12/08 12:35:04;;;;;;;10.70;7.82;;;6.00;99.90;;;;;;4991511;28;20415;-67
2020/12/08 12:37:31;;;;;;;11.50;9.03;;;6.10;99.90;;;;;;4991586;28;20496;-67
2020/12/08 12:39:58;;;;;;;11.87;8.77;;;6.20;99.90;;;;;;4990717;28;20418;-67
2020/12/08 12:42:24;;;;;;;12.67;9.50;;;6.20;99.90;;;;;;4991377;28;20485;-66
2020/12/08 12:44:50;;;;;;;11.73;10.45;;;6.10;99.90;;;;;;4991449;28;20439;-66
2020/12/08 12:47:17;;;;;;;11.00;8.80;;;6.10;99.90;;;;;;4991477;28;20978;-66